createdAt,value
2018-03-03T00:02:25.575Z,9.80
2018-03-03T00:04:54.702Z,9.23
2018-03-03T00:07:23.799Z,10.10
2018-03-03T00:09:53.211Z,9.70
2018-03-03T00:12:22.307Z,10.63
2018-03-03T00:14:52.116Z,8.87
2018-03-03T00:17:21.495Z,9.57
2018-03-03T00:19:50.690Z,8.77
2018-03-03T00:22:32.267Z,9.70
2018-03-03T00:25:01.670Z,10.57
2018-03-03T00:27:30.983Z,9.77
2018-03-03T00:30:00.113Z,11.80
2018-03-03T00:32:29.390Z,10.00
2018-03-03T00:34:58.482Z,10.27
2018-03-03T00:37:28.598Z,9.77
2018-03-03T00:39:57.803Z,9.60
2018-03-03T00:42:27.982Z,9.57
2018-03-03T00:44:57.151Z,10.90
2018-03-03T00:47:26.322Z,10.80
2018-03-03T00:49:55.831Z,10.07
2018-03-03T00:52:25.851Z,10.70
2018-03-03T00:54:55.043Z,10.73
2018-03-03T00:57:24.867Z,10.07
2018-03-03T00:59:53.978Z,10.87
2018-03-03T01:02:22.999Z,10.60
2018-03-03T01:04:52.561Z,11.33
2018-03-03T01:07:21.787Z,11.50
2018-03-03T01:09:51.591Z,12.30
2018-03-03T01:12:20.860Z,10.00
2018-03-03T01:14:50.071Z,11.13
2018-03-03T01:17:19.379Z,10.67
2018-03-03T01:19:48.481Z,11.07
2018-03-03T01:22:17.706Z,9.43
2018-03-03T01:24:47.719Z,12.13
2018-03-03T01:27:16.791Z,11.63
2018-03-03T01:29:45.886Z,11.93
2018-03-03T01:32:16.067Z,12.80
2018-03-03T01:34:45.334Z,12.40
2018-03-03T01:37:14.409Z,13.17
2018-03-03T01:39:43.706Z,12.20
2018-03-03T01:42:13.683Z,14.30
2018-03-03T01:44:43.131Z,12.33
2018-03-03T01:47:13.248Z,14.03
2018-03-03T01:49:42.375Z,12.93
2018-03-03T01:52:11.547Z,11.73
2018-03-03T01:54:40.643Z,11.53
2018-03-03T01:57:10.621Z,11.60
2018-03-03T01:59:39.866Z,11.93
2018-03-03T02:02:09.556Z,12.20
2018-03-03T02:04:38.564Z,12.27
2018-03-03T02:07:08.690Z,12.13
2018-03-03T02:09:38.027Z,11.27
2018-03-03T02:12:07.019Z,12.37
2018-03-03T02:14:37.108Z,12.90
2018-03-03T02:17:07.282Z,13.57
2018-03-03T02:19:36.455Z,12.13
2018-03-03T02:22:05.555Z,14.20
2018-03-03T02:24:35.437Z,13.10
2018-03-03T02:27:04.839Z,14.13
2018-03-03T02:29:33.967Z,15.13
2018-03-03T02:32:03.142Z,15.27
2018-03-03T02:34:32.482Z,15.00
2018-03-03T02:37:01.467Z,15.20
2018-03-03T02:39:30.595Z,15.70
2018-03-03T02:41:59.559Z,14.10
2018-03-03T02:44:29.440Z,14.90
2018-03-03T02:46:59.326Z,16.40
2018-03-03T02:49:28.342Z,14.07
2018-03-03T02:51:57.436Z,14.90
2018-03-03T02:54:26.557Z,14.90
2018-03-03T02:56:55.761Z,15.10
2018-03-03T02:59:24.932Z,14.13
2018-03-03T03:01:54.276Z,14.90
2018-03-03T03:04:23.371Z,14.57
2018-03-03T03:06:53.039Z,15.50
2018-03-03T03:09:22.186Z,15.10
2018-03-03T03:11:52.063Z,15.10
2018-03-03T03:14:21.191Z,15.70
2018-03-03T03:16:50.467Z,18.20
2018-03-03T03:19:19.563Z,16.50
2018-03-03T03:21:49.606Z,17.20
2018-03-03T03:24:18.782Z,15.70
2018-03-03T03:26:49.543Z,17.70
2018-03-03T03:29:19.531Z,17.27
2018-03-03T03:31:49.419Z,16.87
2018-03-03T03:34:18.575Z,16.80
2018-03-03T03:36:47.851Z,16.93
2018-03-03T03:39:17.082Z,18.17
2018-03-03T03:41:46.078Z,17.30
2018-03-03T03:44:16.086Z,18.70
2018-03-03T03:46:45.366Z,18.77
2018-03-03T03:49:14.656Z,19.60
2018-03-03T03:51:43.920Z,19.30
2018-03-03T03:54:13.050Z,23.20
2018-03-03T03:56:42.671Z,24.07
2018-03-03T03:59:14.374Z,25.20
2018-03-03T04:01:44.230Z,23.80
2018-03-03T04:04:14.539Z,24.20
2018-03-03T04:06:44.311Z,24.03
2018-03-03T04:09:14.035Z,23.67
2018-03-03T04:11:44.280Z,23.83
2018-03-03T04:14:15.747Z,24.57
2018-03-03T04:16:46.203Z,24.87
2018-03-03T04:19:16.463Z,22.97
2018-03-03T04:21:47.630Z,24.43
2018-03-03T04:24:19.598Z,22.90
2018-03-03T04:26:49.975Z,22.97
2018-03-03T04:29:19.882Z,22.87
2018-03-03T04:31:49.895Z,25.00
2018-03-03T04:34:20.015Z,22.73
2018-03-03T04:36:50.430Z,24.30
2018-03-03T04:39:20.567Z,23.40
2018-03-03T04:41:49.935Z,23.77
2018-03-03T04:44:19.583Z,22.80
2018-03-03T04:46:51.079Z,22.53
2018-03-03T04:49:20.424Z,22.50
2018-03-03T04:51:51.076Z,22.33
2018-03-03T04:54:21.783Z,18.93
2018-03-03T04:56:50.954Z,20.20
2018-03-03T04:59:30.512Z,15.10
2018-03-03T05:02:10.185Z,12.47
2018-03-03T05:05:00.468Z,12.37
2018-03-03T05:07:36.643Z,11.00
2018-03-03T05:10:06.961Z,12.40
2018-03-03T05:12:39.875Z,12.47
2018-03-03T05:15:27.781Z,12.50
2018-03-03T05:18:15.626Z,10.63
2018-03-03T05:21:06.321Z,11.90
2018-03-03T05:23:54.323Z,12.60
2018-03-03T05:26:29.818Z,11.40
2018-03-03T05:29:14.544Z,11.23
2018-03-03T05:45:27.743Z,10.77
2018-03-03T06:36:07.010Z,12.87
2018-03-03T06:38:36.194Z,10.73
2018-03-03T06:41:06.015Z,12.03
2018-03-03T06:43:36.232Z,12.73
2018-03-03T06:46:05.376Z,11.57
2018-03-03T06:48:34.563Z,10.27
2018-03-03T06:51:05.095Z,11.00
2018-03-03T06:53:34.086Z,11.90
2018-03-03T06:56:03.995Z,11.03
2018-03-03T06:58:33.275Z,11.50
2018-03-03T07:01:02.306Z,10.93
2018-03-03T07:03:31.263Z,12.53
2018-03-03T07:06:00.598Z,11.30
2018-03-03T07:08:29.870Z,10.50
2018-03-03T07:10:59.067Z,11.90
2018-03-03T07:13:29.083Z,11.57
2018-03-03T07:15:58.431Z,10.63
2018-03-03T07:18:27.771Z,11.43
2018-03-03T07:20:56.869Z,9.77
2018-03-03T07:23:26.182Z,10.83
2018-03-03T07:25:55.278Z,9.03
2018-03-03T07:28:24.463Z,10.00
2018-03-03T07:30:53.683Z,10.23
2018-03-03T07:33:22.783Z,9.50
2018-03-03T07:35:52.792Z,10.27
2018-03-03T07:38:22.232Z,12.63
2018-03-03T07:40:51.259Z,9.73
2018-03-03T07:43:20.604Z,10.10
2018-03-03T07:45:50.824Z,11.13
2018-03-03T07:48:20.803Z,10.63
2018-03-03T07:50:49.923Z,11.53
2018-03-03T07:53:18.832Z,10.70
2018-03-03T07:55:47.992Z,10.43
2018-03-03T07:58:28.802Z,11.10
2018-03-03T08:00:57.718Z,11.00
2018-03-03T08:03:27.539Z,11.10
2018-03-03T08:05:56.611Z,11.47
2018-03-03T08:08:26.007Z,11.70
2018-03-03T08:10:55.887Z,12.33
2018-03-03T08:13:24.846Z,13.27
2018-03-03T08:15:53.842Z,12.30
2018-03-03T08:18:24.346Z,12.03
2018-03-03T08:20:54.359Z,12.27
2018-03-03T08:23:24.111Z,12.13
2018-03-03T08:25:54.115Z,12.30
2018-03-03T08:28:23.187Z,12.00
2018-03-03T08:30:52.389Z,11.30
2018-03-03T08:33:22.399Z,11.37
2018-03-03T08:35:51.630Z,12.53
2018-03-03T08:38:20.931Z,12.90
2018-03-03T08:40:50.207Z,11.60
2018-03-03T08:43:19.875Z,12.27
2018-03-03T08:45:50.231Z,10.77
2018-03-03T08:48:19.180Z,12.90
2018-03-03T08:50:49.010Z,12.33
2018-03-03T08:53:18.278Z,11.63
2018-03-03T08:55:48.356Z,12.93
2018-03-03T08:58:17.772Z,12.70
2018-03-03T09:00:46.771Z,11.67
2018-03-03T09:03:15.972Z,13.30
2018-03-03T09:05:45.275Z,12.93
2018-03-03T09:08:15.188Z,13.30
2018-03-03T09:10:44.384Z,13.43
2018-03-03T09:13:14.595Z,14.07
2018-03-03T09:15:45.917Z,15.90
2018-03-03T09:18:15.974Z,14.50
2018-03-03T09:20:45.878Z,13.17
2018-03-03T09:23:15.181Z,13.67
2018-03-03T09:25:44.503Z,13.00
2018-03-03T09:28:13.625Z,12.90
2018-03-03T09:30:42.614Z,12.90
2018-03-03T09:33:11.894Z,12.00
2018-03-03T09:35:41.871Z,11.03
2018-03-03T09:38:11.003Z,11.20
2018-03-03T09:40:40.815Z,11.47
2018-03-03T09:43:10.662Z,10.47
2018-03-03T09:45:39.759Z,11.70
2018-03-03T09:48:09.241Z,11.07
2018-03-03T09:50:38.267Z,11.70
2018-03-03T09:53:07.396Z,10.97
2018-03-03T09:55:36.463Z,10.53
2018-03-03T09:58:05.591Z,10.27
2018-03-03T10:00:34.659Z,10.67
2018-03-03T10:03:03.707Z,12.00
2018-03-03T10:05:33.351Z,9.80
2018-03-03T10:08:03.022Z,11.00
2018-03-03T10:10:32.550Z,10.80
2018-03-03T10:13:01.803Z,10.37
2018-03-03T10:15:30.938Z,8.93
2018-03-03T10:18:00.249Z,8.90
2018-03-03T10:20:30.144Z,9.47
2018-03-03T10:22:59.315Z,9.90
2018-03-03T10:25:28.587Z,9.63
2018-03-03T10:27:58.378Z,9.70
2018-03-03T10:30:28.214Z,8.80
2018-03-03T10:32:57.496Z,10.30
2018-03-03T10:35:27.567Z,8.30
2018-03-03T10:37:56.635Z,8.13
2018-03-03T10:40:26.063Z,8.23
2018-03-03T10:42:55.150Z,8.40
2018-03-03T10:45:24.242Z,7.67
2018-03-03T10:47:54.251Z,8.87
2018-03-03T10:50:23.526Z,9.00
2018-03-03T10:52:54.159Z,9.40
2018-03-03T10:55:26.511Z,8.70
2018-03-03T10:57:56.446Z,9.10
2018-03-03T11:00:27.830Z,7.77
2018-03-03T11:02:58.019Z,9.00
2018-03-03T11:05:30.337Z,8.43
2018-03-03T11:07:59.990Z,10.53
2018-03-03T11:10:30.005Z,9.20
2018-03-03T11:13:00.376Z,8.67
2018-03-03T11:15:29.650Z,9.20
2018-03-03T11:18:00.097Z,9.20
2018-03-03T11:20:29.275Z,9.87
2018-03-03T11:22:58.364Z,9.30
2018-03-03T11:25:29.879Z,9.30
2018-03-03T11:27:59.439Z,10.10
2018-03-03T11:30:28.427Z,9.73
2018-03-03T11:32:58.184Z,9.97
2018-03-03T11:35:28.121Z,9.03
2018-03-03T11:37:58.327Z,9.80
2018-03-03T11:40:33.133Z,9.20
2018-03-03T11:42:58.215Z,9.27
2018-03-03T11:45:27.575Z,9.33
2018-03-03T11:47:56.518Z,9.30
2018-03-03T11:50:26.427Z,8.60
2018-03-03T11:52:55.724Z,9.77
2018-03-03T11:55:24.963Z,8.43
2018-03-03T11:57:53.954Z,9.93
2018-03-03T12:00:24.546Z,9.20
2018-03-03T12:02:54.391Z,9.93
2018-03-03T12:05:23.388Z,9.60
2018-03-03T12:07:52.691Z,8.97
2018-03-03T12:10:21.983Z,11.03
2018-03-03T12:12:53.198Z,8.67
2018-03-03T12:15:22.518Z,9.47
2018-03-03T12:17:51.857Z,9.53
2018-03-03T12:20:21.722Z,9.77
2018-03-03T12:22:51.569Z,10.27
2018-03-03T12:25:22.283Z,9.87
2018-03-03T12:27:51.882Z,10.27
2018-03-03T12:30:20.864Z,10.73
2018-03-03T12:32:49.887Z,10.10
2018-03-03T12:35:19.795Z,10.17
2018-03-03T12:37:48.994Z,9.17
2018-03-03T12:40:18.294Z,8.87
2018-03-03T12:42:48.076Z,10.83
2018-03-03T12:45:17.443Z,11.87
2018-03-03T12:47:46.814Z,12.10
2018-03-03T12:50:16.153Z,10.87
2018-03-03T12:52:45.298Z,13.67
2018-03-03T12:55:15.967Z,14.53
2018-03-03T12:57:44.937Z,10.47
2018-03-03T13:00:14.258Z,11.10
2018-03-03T13:02:43.607Z,11.27
2018-03-03T13:05:12.606Z,10.80
2018-03-03T13:07:41.948Z,10.97
2018-03-03T13:10:11.970Z,10.60
2018-03-03T13:12:41.101Z,11.07
2018-03-03T13:15:10.350Z,10.57
2018-03-03T13:17:39.982Z,10.47
2018-03-03T13:20:09.874Z,11.40
2018-03-03T13:22:39.214Z,11.80
2018-03-03T13:25:08.214Z,11.60
2018-03-03T13:27:38.007Z,10.90
2018-03-03T13:30:06.976Z,10.23
2018-03-03T13:32:35.986Z,9.67
2018-03-03T13:35:05.091Z,11.33
2018-03-03T13:37:35.027Z,10.13
2018-03-03T13:40:04.332Z,10.20
2018-03-03T13:42:33.334Z,10.67
2018-03-03T13:45:02.464Z,9.80
2018-03-03T13:47:31.330Z,11.33
2018-03-03T13:50:00.651Z,9.67
2018-03-03T13:52:29.796Z,10.87
2018-03-03T13:54:59.656Z,10.97
2018-03-03T13:57:29.586Z,11.43
2018-03-03T13:59:58.574Z,10.33
2018-03-03T14:02:28.075Z,11.30
2018-03-03T14:04:57.534Z,10.53
2018-03-03T14:07:26.657Z,11.93
2018-03-03T14:09:55.923Z,12.27
2018-03-03T14:12:25.019Z,11.43
2018-03-03T14:14:55.067Z,12.20
2018-03-03T14:17:24.836Z,10.80
2018-03-03T14:19:54.896Z,11.97
2018-03-03T14:22:23.902Z,10.93
2018-03-03T14:24:53.040Z,11.60
2018-03-03T14:27:22.203Z,11.30
2018-03-03T14:29:51.148Z,10.53
2018-03-03T14:32:20.258Z,11.67
2018-03-03T14:34:50.095Z,11.33
2018-03-03T14:37:19.672Z,11.67
2018-03-03T14:39:49.011Z,11.43
2018-03-03T14:42:17.971Z,11.30
2018-03-03T14:44:48.120Z,10.20
2018-03-03T14:47:17.787Z,12.43
2018-03-03T14:49:46.819Z,12.23
2018-03-03T14:52:15.826Z,12.33
2018-03-03T14:54:45.002Z,10.73
2018-03-03T14:57:14.935Z,11.67
2018-03-03T14:59:44.220Z,11.47
2018-03-03T15:02:13.960Z,10.93
2018-03-03T15:04:44.692Z,11.07
2018-03-03T15:07:13.755Z,11.30
2018-03-03T15:09:42.755Z,11.60
2018-03-03T15:12:12.827Z,12.13
2018-03-03T15:14:42.272Z,12.03
2018-03-03T15:17:11.480Z,11.60
2018-03-03T15:19:41.613Z,12.03
2018-03-03T15:22:10.720Z,11.10
2018-03-03T15:24:40.000Z,12.20
2018-03-03T15:27:09.228Z,11.10
2018-03-03T15:29:38.183Z,11.70
2018-03-03T15:32:07.424Z,12.10
2018-03-03T15:34:36.568Z,10.77
2018-03-03T15:37:05.512Z,11.67
2018-03-03T15:39:34.698Z,12.63
2018-03-03T15:42:05.456Z,11.83
2018-03-03T15:44:34.399Z,12.87
2018-03-03T15:47:03.715Z,11.83
2018-03-03T15:49:33.651Z,14.23
2018-03-03T15:52:06.824Z,14.50
2018-03-03T15:54:36.319Z,12.10
2018-03-03T15:57:06.118Z,13.90
2018-03-03T15:59:35.299Z,12.27
2018-03-03T16:02:04.332Z,13.17
2018-03-03T16:04:33.432Z,14.30
2018-03-03T16:07:02.690Z,11.73
2018-03-03T16:09:31.935Z,11.57
2018-03-03T16:12:01.023Z,13.00
2018-03-03T16:14:31.204Z,14.30
2018-03-03T16:17:00.272Z,13.50
2018-03-03T16:19:29.677Z,12.80
2018-03-03T16:21:59.476Z,12.10
2018-03-03T16:24:28.444Z,13.40
2018-03-03T16:26:57.444Z,13.53
2018-03-03T16:29:27.478Z,12.77
2018-03-03T16:31:56.570Z,12.73
2018-03-03T16:34:26.364Z,14.57
2018-03-03T16:36:55.460Z,12.90
2018-03-03T16:39:24.661Z,11.60
2018-03-03T16:41:54.004Z,12.20
2018-03-03T16:44:23.297Z,12.90
2018-03-03T16:46:53.257Z,12.90
2018-03-03T16:49:22.655Z,12.93
2018-03-03T16:51:51.965Z,13.13
2018-03-03T16:54:22.683Z,13.47
2018-03-03T16:56:53.439Z,12.77
2018-03-03T16:59:22.355Z,13.20
2018-03-03T17:01:51.532Z,12.83
2018-03-03T17:04:20.623Z,13.20
2018-03-03T17:06:49.550Z,13.53
2018-03-03T17:09:19.323Z,12.50
2018-03-03T17:11:48.464Z,13.10
2018-03-03T17:14:18.383Z,12.60
2018-03-03T17:16:47.666Z,13.50
2018-03-03T17:19:16.748Z,13.47
2018-03-03T17:21:46.076Z,12.63
2018-03-03T17:24:15.207Z,13.93
2018-03-03T17:26:45.212Z,12.33
2018-03-03T17:29:14.840Z,13.23
2018-03-03T17:31:44.557Z,13.00
2018-03-03T17:34:13.648Z,13.17
2018-03-03T17:36:43.528Z,12.40
2018-03-03T17:39:13.416Z,12.70
2018-03-03T17:41:42.436Z,12.73
2018-03-03T17:44:11.559Z,12.80
2018-03-03T17:46:41.003Z,12.83
2018-03-03T17:49:10.135Z,11.77
2018-03-03T17:51:40.056Z,12.13
2018-03-03T17:54:08.992Z,12.70
2018-03-03T17:56:38.115Z,12.10
2018-03-03T17:59:07.128Z,12.43
2018-03-03T18:01:36.279Z,13.80
2018-03-03T18:04:06.060Z,12.40
2018-03-03T18:06:35.836Z,12.97
2018-03-03T18:09:05.283Z,12.80
2018-03-03T18:11:34.599Z,11.93
2018-03-03T18:14:03.672Z,13.37
2018-03-03T18:16:33.656Z,13.23
2018-03-03T18:19:02.568Z,12.33
2018-03-03T18:21:31.623Z,13.40
2018-03-03T18:24:01.803Z,13.40
2018-03-03T18:26:31.136Z,11.50
2018-03-03T18:29:01.351Z,12.80
2018-03-03T18:31:30.323Z,11.40
2018-03-03T18:33:59.550Z,12.20
2018-03-03T18:36:29.083Z,13.10
2018-03-03T18:38:58.300Z,12.60
2018-03-03T18:41:27.628Z,12.00
2018-03-03T18:43:56.931Z,12.17
2018-03-03T18:46:26.775Z,13.70
2018-03-03T18:48:56.788Z,12.90
2018-03-03T18:51:25.860Z,11.70
2018-03-03T18:53:54.976Z,13.33
2018-03-03T18:56:24.152Z,12.50
2018-03-03T18:58:53.360Z,13.10
2018-03-03T19:01:23.305Z,13.00
2018-03-03T19:03:53.113Z,12.67
2018-03-03T19:06:22.289Z,12.83
2018-03-03T19:08:51.724Z,12.63
2018-03-03T19:11:20.715Z,11.60
2018-03-03T19:13:50.696Z,12.27
2018-03-03T19:16:20.588Z,11.70
2018-03-03T19:18:49.608Z,13.13
2018-03-03T19:21:19.732Z,11.80
2018-03-03T19:23:49.032Z,11.97
2018-03-03T19:26:19.082Z,12.17
2018-03-03T19:28:48.984Z,12.13
2018-03-03T19:31:18.812Z,11.50
2018-03-03T19:33:48.087Z,12.23
2018-03-03T19:36:18.204Z,11.27
2018-03-03T19:38:47.399Z,11.83
2018-03-03T19:41:17.236Z,12.77
2018-03-03T19:43:46.195Z,11.63
2018-03-03T19:46:15.215Z,11.93
2018-03-03T19:48:44.188Z,13.03
2018-03-03T19:51:13.271Z,13.33
2018-03-03T19:53:42.468Z,13.27
2018-03-03T19:56:11.416Z,12.27
2018-03-03T19:58:40.479Z,11.80
2018-03-03T20:01:09.874Z,12.30
2018-03-03T20:03:39.292Z,11.53
2018-03-03T20:06:08.420Z,13.00
2018-03-03T20:08:37.695Z,11.07
2018-03-03T20:11:07.832Z,11.97
2018-03-03T20:13:37.701Z,12.00
2018-03-03T20:16:07.468Z,9.83
2018-03-03T20:18:36.567Z,11.67
2018-03-03T20:21:05.800Z,10.87
2018-03-03T20:23:34.840Z,11.33
2018-03-03T20:26:05.056Z,10.60
2018-03-03T20:28:34.184Z,11.80
2018-03-03T20:31:03.280Z,11.17
2018-03-03T20:33:32.563Z,11.93
2018-03-03T20:36:02.527Z,10.87
2018-03-03T20:38:31.802Z,11.80
2018-03-03T20:41:00.876Z,12.10
2018-03-03T20:43:30.171Z,10.83
2018-03-03T20:46:00.088Z,10.67
2018-03-03T20:48:29.468Z,10.63
2018-03-03T20:50:58.832Z,10.67
2018-03-03T20:53:28.704Z,9.50
2018-03-03T20:55:58.592Z,11.23
2018-03-03T20:58:27.608Z,9.53
2018-03-03T21:00:57.645Z,9.63
2018-03-03T21:03:26.742Z,10.30
2018-03-03T21:05:56.811Z,10.00
2018-03-03T21:08:26.736Z,9.80
2018-03-03T21:10:56.617Z,10.00
2018-03-03T21:13:25.993Z,10.00
2018-03-03T21:15:55.092Z,11.30
2018-03-03T21:18:25.203Z,10.00
2018-03-03T21:20:54.332Z,10.67
2018-03-03T21:23:23.616Z,10.90
2018-03-03T21:25:53.333Z,10.97
2018-03-03T21:28:23.231Z,10.40
2018-03-03T21:30:52.268Z,10.13
2018-03-03T21:33:21.225Z,10.17
2018-03-03T21:35:50.592Z,11.20
2018-03-03T21:38:19.713Z,10.80
2018-03-03T21:40:48.656Z,10.30
2018-03-03T21:43:17.785Z,9.93
2018-03-03T21:45:46.804Z,11.20
2018-03-03T21:48:15.696Z,12.03
2018-03-03T21:50:45.090Z,10.20
2018-03-03T21:53:14.289Z,10.20
2018-03-03T21:55:43.708Z,11.03
2018-03-03T21:58:13.460Z,10.77
2018-03-03T22:00:43.555Z,10.37
2018-03-03T22:03:13.411Z,11.00
2018-03-03T22:05:42.640Z,10.87
2018-03-03T22:08:11.852Z,10.63
2018-03-03T22:10:40.979Z,11.50
2018-03-03T22:13:10.155Z,10.37
2018-03-03T22:15:39.252Z,10.00
2018-03-03T22:18:09.328Z,10.57
2018-03-03T22:20:38.464Z,10.40
2018-03-03T22:23:07.703Z,9.70
2018-03-03T22:25:37.368Z,12.43
2018-03-03T22:28:07.401Z,10.20
2018-03-03T22:30:36.499Z,10.10
2018-03-03T22:33:06.612Z,10.13
2018-03-03T22:35:36.128Z,12.60
2018-03-03T22:38:06.096Z,14.90
2018-03-03T22:40:35.367Z,12.77
2018-03-03T22:43:04.360Z,16.00
2018-03-03T22:45:33.640Z,17.00
2018-03-03T22:48:03.548Z,20.57
2018-03-03T22:50:32.751Z,19.33
2018-03-03T22:53:02.592Z,18.90
2018-03-03T22:55:32.410Z,19.40
2018-03-03T22:58:01.684Z,20.53
2018-03-03T23:00:30.781Z,21.63
2018-03-03T23:02:59.917Z,23.20
2018-03-03T23:05:29.787Z,23.27
2018-03-03T23:07:59.671Z,22.83
2018-03-03T23:10:28.583Z,21.03
2018-03-03T23:12:57.669Z,23.40
2018-03-03T23:15:26.667Z,24.10
2018-03-03T23:17:57.183Z,24.43
2018-03-03T23:20:26.200Z,24.90
2018-03-03T23:22:55.424Z,26.30
2018-03-03T23:25:24.389Z,25.13
2018-03-03T23:27:53.471Z,24.50
2018-03-03T23:30:22.616Z,27.60
2018-03-03T23:32:52.823Z,23.60
2018-03-03T23:35:21.928Z,25.90
2018-03-03T23:37:51.968Z,28.80
2018-03-03T23:40:21.635Z,28.20
2018-03-03T23:42:50.711Z,27.57
2018-03-03T23:45:19.768Z,29.10
2018-03-03T23:47:48.724Z,30.07
2018-03-03T23:50:17.720Z,26.73
2018-03-03T23:52:47.888Z,27.20
2018-03-03T23:55:17.828Z,25.60
2018-03-03T23:57:47.100Z,26.43
